sensor_id;sensor_type;location;lat;lon;timestamp;pressure;altitude;pressure_sealevel;temperature;humidity
10135;BME280;5107;48.850;8.924;2023-09-08T00:01:46;97047.91;;;18.20;71.70
10135;BME280;5107;48.850;8.924;2023-09-08T00:04:11;97048.47;;;18.35;71.17
10135;BME280;5107;48.850;8.924;2023-09-08T00:06:37;97047.41;;;18.49;70.84
10135;BME280;5107;48.850;8.924;2023-09-08T00:09:03;97049.13;;;18.82;68.41
10135;BME280;5107;48.850;8.924;2023-09-08T00:11:28;97047.44;;;18.87;67.85
10135;BME280;5107;48.850;8.924;2023-09-08T00:13:54;97058.69;;;18.96;67.82
10135;BME280;5107;48.850;8.924;2023-09-08T00:16:19;97049.81;;;19.02;67.88
10135;BME280;5107;48.850;8.924;2023-09-08T00:18:45;97055.50;;;19.12;67.70
10135;BME280;5107;48.850;8.924;2023-09-08T00:21:10;97048.88;;;19.21;66.77
10135;BME280;5107;48.850;8.924;2023-09-08T00:23:35;97050.34;;;19.17;67.14
10135;BME280;5107;48.850;8.924;2023-09-08T00:26:00;97047.72;;;19.11;67.41
10135;BME280;5107;48.850;8.924;2023-09-08T00:28:26;97059.09;;;19.00;68.20
10135;BME280;5107;48.850;8.924;2023-09-08T00:30:52;97050.56;;;18.78;68.98
10135;BME280;5107;48.850;8.924;2023-09-08T00:33:17;97055.56;;;18.61;69.85
10135;BME280;5107;48.850;8.924;2023-09-08T00:35:49;97046.38;;;18.44;70.53
10135;BME280;5107;48.850;8.924;2023-09-08T00:38:15;97050.34;;;18.28;71.20
10135;BME280;5107;48.850;8.924;2023-09-08T00:40:40;97043.97;;;18.29;72.26
10135;BME280;5107;48.850;8.924;2023-09-08T00:43:05;97050.28;;;18.41;72.40
10135;BME280;5107;48.850;8.924;2023-09-08T00:45:31;97041.63;;;18.52;71.61
10135;BME280;5107;48.850;8.924;2023-09-08T00:47:56;97050.19;;;18.68;71.10
10135;BME280;5107;48.850;8.924;2023-09-08T00:50:21;97041.63;;;18.66;71.07
10135;BME280;5107;48.850;8.924;2023-09-08T00:52:47;97043.84;;;18.69;71.05
10135;BME280;5107;48.850;8.924;2023-09-08T00:55:13;97045.72;;;18.55;71.25
10135;BME280;5107;48.850;8.924;2023-09-08T00:57:38;97044.16;;;18.34;71.72
10135;BME280;5107;48.850;8.924;2023-09-08T01:00:04;97044.78;;;18.30;73.19
10135;BME280;5107;48.850;8.924;2023-09-08T01:02:31;97033.56;;;18.21;73.12
10135;BME280;5107;48.850;8.924;2023-09-08T01:04:57;97032.66;;;18.34;72.59
10135;BME280;5107;48.850;8.924;2023-09-08T01:07:27;97041.88;;;18.44;71.70
10135;BME280;5107;48.850;8.924;2023-09-08T01:09:55;97037.94;;;18.60;71.03
10135;BME280;5107;48.850;8.924;2023-09-08T01:12:20;97037.31;;;18.65;70.81
10135;BME280;5107;48.850;8.924;2023-09-08T01:14:45;97040.59;;;18.60;70.89
10135;BME280;5107;48.850;8.924;2023-09-08T01:17:11;97039.41;;;18.49;71.49
10135;BME280;5107;48.850;8.924;2023-09-08T01:19:38;97031.84;;;18.40;72.11
10135;BME280;5107;48.850;8.924;2023-09-08T01:22:20;97026.59;;;18.13;72.47
10135;BME280;5107;48.850;8.924;2023-09-08T01:25:04;97028.28;;;17.95;73.46
10135;BME280;5107;48.850;8.924;2023-09-08T01:27:33;97036.69;;;17.85;74.48
10135;BME280;5107;48.850;8.924;2023-09-08T01:30:01;97037.31;;;17.87;74.64
10135;BME280;5107;48.850;8.924;2023-09-08T01:32:29;97035.03;;;18.04;73.70
10135;BME280;5107;48.850;8.924;2023-09-08T01:34:56;97034.19;;;18.10;73.01
10135;BME280;5107;48.850;8.924;2023-09-08T01:37:23;97035.22;;;18.09;73.14
10135;BME280;5107;48.850;8.924;2023-09-08T01:39:48;97029.25;;;18.20;72.30
10135;BME280;5107;48.850;8.924;2023-09-08T01:42:14;97027.44;;;18.01;72.17
10135;BME280;5107;48.850;8.924;2023-09-08T01:44:39;97026.03;;;17.92;72.95
10135;BME280;5107;48.850;8.924;2023-09-08T01:47:04;97029.34;;;17.80;73.20
10135;BME280;5107;48.850;8.924;2023-09-08T01:49:30;97032.81;;;17.61;73.89
10135;BME280;5107;48.850;8.924;2023-09-08T01:51:55;97029.75;;;17.38;74.55
10135;BME280;5107;48.850;8.924;2023-09-08T01:54:21;97028.31;;;17.22;75.38
10135;BME280;5107;48.850;8.924;2023-09-08T01:56:46;97024.41;;;17.12;76.10
10135;BME280;5107;48.850;8.924;2023-09-08T01:59:12;97027.84;;;16.99;76.77
10135;BME280;5107;48.850;8.924;2023-09-08T02:01:37;97025.59;;;16.89;76.96
10135;BME280;5107;48.850;8.924;2023-09-08T02:04:02;97018.22;;;16.85;77.51
10135;BME280;5107;48.850;8.924;2023-09-08T02:06:28;97023.34;;;16.86;77.98
10135;BME280;5107;48.850;8.924;2023-09-08T02:08:53;97029.28;;;16.82;78.10
10135;BME280;5107;48.850;8.924;2023-09-08T02:11:18;97030.03;;;16.76;78.18
10135;BME280;5107;48.850;8.924;2023-09-08T02:13:44;97023.31;;;16.73;78.29
10135;BME280;5107;48.850;8.924;2023-09-08T02:16:13;97029.03;;;16.83;78.35
10135;BME280;5107;48.850;8.924;2023-09-08T02:18:39;97025.34;;;16.71;78.54
10135;BME280;5107;48.850;8.924;2023-09-08T02:21:05;97019.63;;;16.74;79.07
10135;BME280;5107;48.850;8.924;2023-09-08T02:23:30;97029.03;;;16.70;78.88
10135;BME280;5107;48.850;8.924;2023-09-08T02:25:55;97025.97;;;16.73;79.58
10135;BME280;5107;48.850;8.924;2023-09-08T02:28:20;97027.19;;;16.71;79.06
10135;BME280;5107;48.850;8.924;2023-09-08T02:30:46;97017.38;;;16.64;79.25
10135;BME280;5107;48.850;8.924;2023-09-08T02:33:11;97018.38;;;16.70;79.12
10135;BME280;5107;48.850;8.924;2023-09-08T02:35:37;97019.13;;;16.57;79.38
10135;BME280;5107;48.850;8.924;2023-09-08T02:38:03;97021.75;;;16.51;79.15
10135;BME280;5107;48.850;8.924;2023-09-08T02:40:29;97017.56;;;16.63;79.71
10135;BME280;5107;48.850;8.924;2023-09-08T02:42:54;97018.22;;;16.85;78.81
10135;BME280;5107;48.850;8.924;2023-09-08T02:45:19;97013.13;;;16.90;78.19
10135;BME280;5107;48.850;8.924;2023-09-08T02:47:45;97015.53;;;16.78;77.75
10135;BME280;5107;48.850;8.924;2023-09-08T02:50:10;97019.41;;;16.62;77.92
10135;BME280;5107;48.850;8.924;2023-09-08T02:52:36;97013.78;;;16.51;78.33
10135;BME280;5107;48.850;8.924;2023-09-08T02:55:01;97020.09;;;16.43;79.32
10135;BME280;5107;48.850;8.924;2023-09-08T02:57:26;97020.28;;;16.35;80.10
10135;BME280;5107;48.850;8.924;2023-09-08T02:59:52;97009.25;;;16.31;80.56
10135;BME280;5107;48.850;8.924;2023-09-08T03:02:17;97015.75;;;16.22;80.73
10135;BME280;5107;48.850;8.924;2023-09-08T03:04:43;97019.63;;;16.26;81.00
10135;BME280;5107;48.850;8.924;2023-09-08T03:07:08;97015.94;;;16.21;80.85
10135;BME280;5107;48.850;8.924;2023-09-08T03:09:34;97014.09;;;16.21;81.69
10135;BME280;5107;48.850;8.924;2023-09-08T03:11:59;97010.97;;;16.11;81.55
10135;BME280;5107;48.850;8.924;2023-09-08T03:14:25;97013.16;;;16.01;81.78
10135;BME280;5107;48.850;8.924;2023-09-08T03:16:50;97007.63;;;15.96;82.15
10135;BME280;5107;48.850;8.924;2023-09-08T03:19:15;97009.47;;;15.96;82.07
10135;BME280;5107;48.850;8.924;2023-09-08T03:21:40;97002.97;;;15.98;81.92
10135;BME280;5107;48.850;8.924;2023-09-08T03:24:06;97007.44;;;15.98;81.88
10135;BME280;5107;48.850;8.924;2023-09-08T03:26:31;97009.66;;;15.94;82.19
10135;BME280;5107;48.850;8.924;2023-09-08T03:28:57;97013.97;;;15.95;82.76
10135;BME280;5107;48.850;8.924;2023-09-08T03:31:22;97008.88;;;16.00;83.48
10135;BME280;5107;48.850;8.924;2023-09-08T03:33:47;97011.31;;;15.95;83.30
10135;BME280;5107;48.850;8.924;2023-09-08T03:36:13;97014.59;;;15.97;83.14
10135;BME280;5107;48.850;8.924;2023-09-08T03:38:38;97011.78;;;16.05;83.76
10135;BME280;5107;48.850;8.924;2023-09-08T03:41:03;97011.16;;;16.03;83.38
10135;BME280;5107;48.850;8.924;2023-09-08T03:43:29;97016.47;;;16.03;83.43
10135;BME280;5107;48.850;8.924;2023-09-08T03:45:56;97017.00;;;15.92;83.21
10135;BME280;5107;48.850;8.924;2023-09-08T03:48:21;97008.66;;;15.95;83.09
10135;BME280;5107;48.850;8.924;2023-09-08T03:50:47;97010.28;;;15.96;82.68
10135;BME280;5107;48.850;8.924;2023-09-08T03:53:12;97008.22;;;15.91;83.01
10135;BME280;5107;48.850;8.924;2023-09-08T03:55:38;97007.38;;;15.91;83.67
10135;BME280;5107;48.850;8.924;2023-09-08T03:58:03;97011.69;;;15.92;83.86
10135;BME280;5107;48.850;8.924;2023-09-08T04:00:29;97014.44;;;16.05;84.06
10135;BME280;5107;48.850;8.924;2023-09-08T04:02:54;97018.47;;;16.01;83.50
10135;BME280;5107;48.850;8.924;2023-09-08T04:05:20;97017.59;;;15.87;83.60
10135;BME280;5107;48.850;8.924;2023-09-08T04:07:45;97021.25;;;15.86;83.62
10135;BME280;5107;48.850;8.924;2023-09-08T04:10:11;97024.69;;;15.80;83.72
10135;BME280;5107;48.850;8.924;2023-09-08T04:12:38;97029.34;;;15.72;83.99
10135;BME280;5107;48.850;8.924;2023-09-08T04:15:03;97032.75;;;15.66;84.20
10135;BME280;5107;48.850;8.924;2023-09-08T04:17:29;97027.88;;;15.69;84.69
10135;BME280;5107;48.850;8.924;2023-09-08T04:19:54;97016.00;;;15.65;84.85
10135;BME280;5107;48.850;8.924;2023-09-08T04:22:19;97023.97;;;15.65;85.46
10135;BME280;5107;48.850;8.924;2023-09-08T04:24:45;97017.66;;;15.66;85.72
10135;BME280;5107;48.850;8.924;2023-09-08T04:27:10;97024.03;;;15.72;85.58
10135;BME280;5107;48.850;8.924;2023-09-08T04:29:36;97020.88;;;15.89;87.28
10135;BME280;5107;48.850;8.924;2023-09-08T04:32:01;97026.13;;;16.17;86.08
10135;BME280;5107;48.850;8.924;2023-09-08T04:34:39;97029.25;;;16.27;85.14
10135;BME280;5107;48.850;8.924;2023-09-08T04:37:05;97026.78;;;16.32;84.91
10135;BME280;5107;48.850;8.924;2023-09-08T04:39:31;97036.22;;;16.35;84.54
10135;BME280;5107;48.850;8.924;2023-09-08T04:41:57;97035.88;;;16.58;83.80
10135;BME280;5107;48.850;8.924;2023-09-08T04:44:22;97035.75;;;16.66;83.00
10135;BME280;5107;48.850;8.924;2023-09-08T04:46:48;97033.13;;;16.73;82.23
10135;BME280;5107;48.850;8.924;2023-09-08T04:49:13;97037.53;;;16.59;82.07
10135;BME280;5107;48.850;8.924;2023-09-08T04:51:38;97036.13;;;16.56;82.57
10135;BME280;5107;48.850;8.924;2023-09-08T04:54:04;97029.16;;;16.55;82.13
10135;BME280;5107;48.850;8.924;2023-09-08T04:56:29;97028.53;;;16.60;82.17
10135;BME280;5107;48.850;8.924;2023-09-08T04:58:54;97034.28;;;16.57;82.07
10135;BME280;5107;48.850;8.924;2023-09-08T05:01:21;97035.41;;;16.89;81.94
10135;BME280;5107;48.850;8.924;2023-09-08T05:03:46;97036.25;;;17.02;80.81
10135;BME280;5107;48.850;8.924;2023-09-08T05:06:11;97035.22;;;16.90;80.93
10135;BME280;5107;48.850;8.924;2023-09-08T05:08:39;97031.50;;;16.85;81.04
10135;BME280;5107;48.850;8.924;2023-09-08T05:22:25;97045.50;;;17.86;79.02
10135;BME280;5107;48.850;8.924;2023-09-08T05:24:50;97046.94;;;18.66;76.60
10135;BME280;5107;48.850;8.924;2023-09-08T05:27:15;97044.69;;;19.88;68.74
10135;BME280;5107;48.850;8.924;2023-09-08T05:29:40;97047.63;;;21.08;63.02
10135;BME280;5107;48.850;8.924;2023-09-08T05:32:06;97049.78;;;21.82;60.05
10135;BME280;5107;48.850;8.924;2023-09-08T05:34:31;97051.84;;;22.50;57.54
10135;BME280;5107;48.850;8.924;2023-09-08T05:36:57;97048.78;;;23.27;55.12
10135;BME280;5107;48.850;8.924;2023-09-08T05:39:22;97051.69;;;23.87;53.57
10135;BME280;5107;48.850;8.924;2023-09-08T05:41:47;97054.03;;;24.55;52.00
10135;BME280;5107;48.850;8.924;2023-09-08T05:44:13;97050.72;;;25.14;50.57
10135;BME280;5107;48.850;8.924;2023-09-08T05:46:38;97056.97;;;25.78;48.65
10135;BME280;5107;48.850;8.924;2023-09-08T05:49:03;97068.16;;;26.29;46.96
10135;BME280;5107;48.850;8.924;2023-09-08T05:51:29;97059.25;;;26.28;46.50
10135;BME280;5107;48.850;8.924;2023-09-08T05:53:55;97062.41;;;26.62;45.18
10135;BME280;5107;48.850;8.924;2023-09-08T05:56:20;97060.75;;;26.14;46.29
10135;BME280;5107;48.850;8.924;2023-09-08T05:58:46;97059.19;;;26.65;45.98
10135;BME280;5107;48.850;8.924;2023-09-08T06:01:12;97059.38;;;26.54;46.68
10135;BME280;5107;48.850;8.924;2023-09-08T06:03:37;97061.00;;;26.13;47.19
10135;BME280;5107;48.850;8.924;2023-09-08T06:06:03;97053.66;;;25.66;48.25
10135;BME280;5107;48.850;8.924;2023-09-08T06:08:28;97052.69;;;25.77;48.09
10135;BME280;5107;48.850;8.924;2023-09-08T06:10:53;97050.25;;;25.49;49.74
10135;BME280;5107;48.850;8.924;2023-09-08T06:13:19;97057.84;;;25.52;48.85
10135;BME280;5107;48.850;8.924;2023-09-08T06:15:44;97058.22;;;25.12;50.93
10135;BME280;5107;48.850;8.924;2023-09-08T06:18:11;97049.28;;;25.06;51.31
10135;BME280;5107;48.850;8.924;2023-09-08T06:20:36;97045.22;;;24.82;51.68
10135;BME280;5107;48.850;8.924;2023-09-08T06:23:01;97042.91;;;24.69;51.76
10135;BME280;5107;48.850;8.924;2023-09-08T06:25:27;97046.69;;;24.12;54.29
10135;BME280;5107;48.850;8.924;2023-09-08T06:27:53;97049.19;;;24.36;53.27
10135;BME280;5107;48.850;8.924;2023-09-08T06:30:19;97043.47;;;23.94;54.57
10135;BME280;5107;48.850;8.924;2023-09-08T06:32:44;97041.66;;;24.16;54.59
10135;BME280;5107;48.850;8.924;2023-09-08T06:35:10;97047.88;;;24.00;55.03
10135;BME280;5107;48.850;8.924;2023-09-08T06:37:36;97043.59;;;23.37;56.75
10135;BME280;5107;48.850;8.924;2023-09-08T06:40:03;97048.78;;;23.55;56.73
10135;BME280;5107;48.850;8.924;2023-09-08T06:42:28;97050.78;;;23.48;57.10
10135;BME280;5107;48.850;8.924;2023-09-08T06:44:53;97051.00;;;23.01;57.98
10135;BME280;5107;48.850;8.924;2023-09-08T06:47:19;97048.06;;;23.31;57.92
10135;BME280;5107;48.850;8.924;2023-09-08T06:49:44;97047.41;;;23.24;57.88
10135;BME280;5107;48.850;8.924;2023-09-08T06:52:10;97048.09;;;23.48;57.53
10135;BME280;5107;48.850;8.924;2023-09-08T06:54:35;97053.72;;;24.30;56.36
10135;BME280;5107;48.850;8.924;2023-09-08T06:57:00;97049.78;;;25.03;54.70
10135;BME280;5107;48.850;8.924;2023-09-08T06:59:26;97050.31;;;25.27;52.60
10135;BME280;5107;48.850;8.924;2023-09-08T07:01:51;97055.31;;;25.72;51.77
10135;BME280;5107;48.850;8.924;2023-09-08T07:04:16;97058.88;;;26.15;52.29
10135;BME280;5107;48.850;8.924;2023-09-08T07:06:42;97056.03;;;26.89;49.95
10135;BME280;5107;48.850;8.924;2023-09-08T07:09:08;97065.41;;;26.71;49.39
10135;BME280;5107;48.850;8.924;2023-09-08T07:11:34;97063.94;;;27.05;48.36
10135;BME280;5107;48.850;8.924;2023-09-08T07:13:59;97069.72;;;27.34;48.18
10135;BME280;5107;48.850;8.924;2023-09-08T07:16:24;97061.34;;;27.51;48.30
10135;BME280;5107;48.850;8.924;2023-09-08T07:18:50;97067.63;;;27.77;48.22
10135;BME280;5107;48.850;8.924;2023-09-08T07:21:15;97066.00;;;28.16;47.64
10135;BME280;5107;48.850;8.924;2023-09-08T07:23:40;97070.84;;;28.24;46.97
10135;BME280;5107;48.850;8.924;2023-09-08T07:26:06;97064.88;;;28.07;46.79
10135;BME280;5107;48.850;8.924;2023-09-08T07:28:31;97065.97;;;27.96;47.76
10135;BME280;5107;48.850;8.924;2023-09-08T07:31:06;97071.94;;;27.83;47.38
10135;BME280;5107;48.850;8.924;2023-09-08T07:33:34;97064.34;;;27.80;48.36
10135;BME280;5107;48.850;8.924;2023-09-08T07:36:04;97064.34;;;28.05;46.43
10135;BME280;5107;48.850;8.924;2023-09-08T07:38:30;97059.50;;;28.17;47.43
10135;BME280;5107;48.850;8.924;2023-09-08T07:40:56;97064.06;;;28.07;47.04
10135;BME280;5107;48.850;8.924;2023-09-08T07:43:21;97062.97;;;28.13;46.76
10135;BME280;5107;48.850;8.924;2023-09-08T07:45:47;97070.28;;;28.12;47.52
10135;BME280;5107;48.850;8.924;2023-09-08T07:48:12;97062.19;;;27.97;47.46
10135;BME280;5107;48.850;8.924;2023-09-08T07:50:37;97068.41;;;28.08;46.96
10135;BME280;5107;48.850;8.924;2023-09-08T07:53:03;97064.88;;;28.07;48.42
10135;BME280;5107;48.850;8.924;2023-09-08T07:55:28;97068.16;;;27.94;48.51
10135;BME280;5107;48.850;8.924;2023-09-08T07:57:54;97066.50;;;28.13;47.71
10135;BME280;5107;48.850;8.924;2023-09-08T08:00:20;97071.09;;;28.38;46.83
10135;BME280;5107;48.850;8.924;2023-09-08T08:02:54;97062.47;;;28.16;46.53
10135;BME280;5107;48.850;8.924;2023-09-08T08:05:19;97065.31;;;27.13;48.85
10135;BME280;5107;48.850;8.924;2023-09-08T08:07:45;97070.19;;;27.21;48.78
10135;BME280;5107;48.850;8.924;2023-09-08T08:10:10;97063.81;;;27.93;49.14
10135;BME280;5107;48.850;8.924;2023-09-08T08:12:37;97059.41;;;28.48;47.66
10135;BME280;5107;48.850;8.924;2023-09-08T08:15:03;97063.22;;;28.42;46.71
10135;BME280;5107;48.850;8.924;2023-09-08T08:17:30;97061.47;;;28.91;46.67
10135;BME280;5107;48.850;8.924;2023-09-08T08:19:56;97064.72;;;28.93;45.31
10135;BME280;5107;48.850;8.924;2023-09-08T08:22:24;97061.81;;;29.29;44.75
10135;BME280;5107;48.850;8.924;2023-09-08T08:24:49;97066.16;;;29.25;46.34
10135;BME280;5107;48.850;8.924;2023-09-08T08:27:15;97062.56;;;29.45;46.05
10135;BME280;5107;48.850;8.924;2023-09-08T08:29:40;97061.03;;;29.67;43.67
10135;BME280;5107;48.850;8.924;2023-09-08T08:32:06;97063.06;;;29.80;44.73
10135;BME280;5107;48.850;8.924;2023-09-08T08:34:31;97062.47;;;29.94;44.55
10135;BME280;5107;48.850;8.924;2023-09-08T08:36:57;97061.47;;;30.13;43.08
10135;BME280;5107;48.850;8.924;2023-09-08T08:39:22;97064.09;;;29.95;44.47
10135;BME280;5107;48.850;8.924;2023-09-08T08:41:47;97056.75;;;29.90;44.17
10135;BME280;5107;48.850;8.924;2023-09-08T08:44:14;97061.47;;;29.40;44.99
10135;BME280;5107;48.850;8.924;2023-09-08T08:46:41;97062.38;;;29.65;45.03
10135;BME280;5107;48.850;8.924;2023-09-08T08:49:06;97057.03;;;29.89;46.02
10135;BME280;5107;48.850;8.924;2023-09-08T08:51:34;97058.50;;;30.39;43.60
10135;BME280;5107;48.850;8.924;2023-09-08T08:54:00;97059.94;;;30.60;43.01
10135;BME280;5107;48.850;8.924;2023-09-08T08:56:30;97055.53;;;30.88;43.35
10135;BME280;5107;48.850;8.924;2023-09-08T08:58:57;97060.22;;;31.25;43.30
10135;BME280;5107;48.850;8.924;2023-09-08T09:01:24;97061.03;;;31.02;42.95
10135;BME280;5107;48.850;8.924;2023-09-08T09:03:51;97063.75;;;31.44;43.18
10135;BME280;5107;48.850;8.924;2023-09-08T09:06:17;97059.84;;;31.32;41.64
10135;BME280;5107;48.850;8.924;2023-09-08T09:08:44;97056.91;;;31.28;43.42
10135;BME280;5107;48.850;8.924;2023-09-08T09:11:10;97057.13;;;31.32;41.53
10135;BME280;5107;48.850;8.924;2023-09-08T09:13:35;97063.72;;;30.83;43.99
10135;BME280;5107;48.850;8.924;2023-09-08T09:16:01;97062.28;;;30.67;44.09
10135;BME280;5107;48.850;8.924;2023-09-08T09:18:29;97065.59;;;30.87;42.52
10135;BME280;5107;48.850;8.924;2023-09-08T09:20:57;97063.38;;;30.89;42.84
10135;BME280;5107;48.850;8.924;2023-09-08T09:23:34;97062.19;;;30.77;42.93
10135;BME280;5107;48.850;8.924;2023-09-08T09:26:01;97063.06;;;30.43;43.94
10135;BME280;5107;48.850;8.924;2023-09-08T09:28:29;97055.78;;;30.39;44.57
10135;BME280;5107;48.850;8.924;2023-09-08T09:30:54;97066.41;;;30.35;43.86
10135;BME280;5107;48.850;8.924;2023-09-08T09:33:21;97061.31;;;30.58;46.07
10135;BME280;5107;48.850;8.924;2023-09-08T09:35:49;97058.56;;;30.63;44.76
10135;BME280;5107;48.850;8.924;2023-09-08T09:38:19;97064.34;;;30.27;43.80
10135;BME280;5107;48.850;8.924;2023-09-08T09:40:48;97064.69;;;30.21;44.35
10135;BME280;5107;48.850;8.924;2023-09-08T09:43:15;97060.81;;;30.27;45.84
10135;BME280;5107;48.850;8.924;2023-09-08T09:45:42;97060.78;;;30.55;44.63
10135;BME280;5107;48.850;8.924;2023-09-08T09:48:11;97063.41;;;30.37;45.17
10135;BME280;5107;48.850;8.924;2023-09-08T09:50:41;97064.63;;;30.49;44.91
10135;BME280;5107;48.850;8.924;2023-09-08T09:53:13;97057.03;;;30.51;46.09
10135;BME280;5107;48.850;8.924;2023-09-08T09:55:40;97062.72;;;30.79;44.15
10135;BME280;5107;48.850;8.924;2023-09-08T09:58:07;97060.66;;;30.66;43.51
10135;BME280;5107;48.850;8.924;2023-09-08T10:00:34;97052.13;;;30.53;44.10
10135;BME280;5107;48.850;8.924;2023-09-08T10:03:00;97059.13;;;30.31;45.14
10135;BME280;5107;48.850;8.924;2023-09-08T10:05:26;97057.84;;;30.23;44.66
10135;BME280;5107;48.850;8.924;2023-09-08T10:07:52;97053.94;;;30.34;46.47
10135;BME280;5107;48.850;8.924;2023-09-08T10:10:19;97057.81;;;30.28;44.63
10135;BME280;5107;48.850;8.924;2023-09-08T10:12:53;97058.25;;;30.11;44.60
10135;BME280;5107;48.850;8.924;2023-09-08T10:15:21;97049.78;;;30.13;45.56
10135;BME280;5107;48.850;8.924;2023-09-08T10:17:47;97056.13;;;30.32;46.44
10135;BME280;5107;48.850;8.924;2023-09-08T10:20:15;97053.22;;;30.52;44.65
10135;BME280;5107;48.850;8.924;2023-09-08T10:22:42;97046.59;;;30.35;43.91
10135;BME280;5107;48.850;8.924;2023-09-08T10:25:09;97047.22;;;30.27;44.72
10135;BME280;5107;48.850;8.924;2023-09-08T10:27:36;97044.06;;;30.43;45.86
10135;BME280;5107;48.850;8.924;2023-09-08T10:30:05;97046.78;;;30.14;44.43
10135;BME280;5107;48.850;8.924;2023-09-08T10:32:32;97047.41;;;30.06;45.30
10135;BME280;5107;48.850;8.924;2023-09-08T10:34:59;97041.28;;;29.91;45.96
10135;BME280;5107;48.850;8.924;2023-09-08T10:37:26;97040.84;;;30.12;45.19
10135;BME280;5107;48.850;8.924;2023-09-08T10:39:54;97042.34;;;30.47;45.57
10135;BME280;5107;48.850;8.924;2023-09-08T10:47:24;97042.63;;;31.55;42.67
10135;BME280;5107;48.850;8.924;2023-09-08T10:49:50;97040.72;;;31.74;43.98
10135;BME280;5107;48.850;8.924;2023-09-08T10:52:21;97041.38;;;31.66;43.52
10135;BME280;5107;48.850;8.924;2023-09-08T10:54:53;97041.44;;;31.61;42.94
10135;BME280;5107;48.850;8.924;2023-09-08T10:57:23;97044.25;;;31.75;42.27
10135;BME280;5107;48.850;8.924;2023-09-08T10:59:54;97045.03;;;31.56;44.24
10135;BME280;5107;48.850;8.924;2023-09-08T11:05:07;97043.81;;;31.49;42.39
10135;BME280;5107;48.850;8.924;2023-09-08T11:07:35;97042.19;;;31.48;43.02
10135;BME280;5107;48.850;8.924;2023-09-08T11:10:01;97043.91;;;31.62;42.85
10135;BME280;5107;48.850;8.924;2023-09-08T11:12:27;97039.53;;;31.80;42.74
10135;BME280;5107;48.850;8.924;2023-09-08T11:14:53;97039.63;;;31.89;43.34
10135;BME280;5107;48.850;8.924;2023-09-08T11:17:18;97043.06;;;32.13;42.51
10135;BME280;5107;48.850;8.924;2023-09-08T11:19:49;97038.34;;;32.32;41.28
10135;BME280;5107;48.850;8.924;2023-09-08T11:22:16;97038.47;;;32.41;42.66
10135;BME280;5107;48.850;8.924;2023-09-08T11:24:43;97037.97;;;32.66;42.10
10135;BME280;5107;48.850;8.924;2023-09-08T11:27:10;97038.91;;;32.75;41.13
10135;BME280;5107;48.850;8.924;2023-09-08T11:29:36;97035.25;;;32.94;40.69
10135;BME280;5107;48.850;8.924;2023-09-08T11:32:02;97034.66;;;32.97;40.28
10135;BME280;5107;48.850;8.924;2023-09-08T11:34:29;97041.88;;;33.15;38.92
10135;BME280;5107;48.850;8.924;2023-09-08T11:36:54;97034.34;;;32.85;40.62
10135;BME280;5107;48.850;8.924;2023-09-08T11:39:25;97030.91;;;32.93;40.21
10135;BME280;5107;48.850;8.924;2023-09-08T11:41:51;97028.56;;;33.00;39.78
10135;BME280;5107;48.850;8.924;2023-09-08T11:44:20;97037.03;;;33.12;39.20
10135;BME280;5107;48.850;8.924;2023-09-08T11:46:46;97035.06;;;32.76;40.72
10135;BME280;5107;48.850;8.924;2023-09-08T11:49:13;97027.31;;;33.20;40.24
10135;BME280;5107;48.850;8.924;2023-09-08T11:51:38;97042.38;;;33.17;41.21
10135;BME280;5107;48.850;8.924;2023-09-08T11:54:04;97028.44;;;33.19;38.76
10135;BME280;5107;48.850;8.924;2023-09-08T11:56:30;97039.47;;;33.13;39.75
10135;BME280;5107;48.850;8.924;2023-09-08T11:58:57;97036.75;;;33.00;40.22
10135;BME280;5107;48.850;8.924;2023-09-08T12:01:22;97039.88;;;33.07;40.44
10135;BME280;5107;48.850;8.924;2023-09-08T12:03:52;97037.84;;;32.99;38.87
10135;BME280;5107;48.850;8.924;2023-09-08T12:06:18;97035.25;;;32.94;39.74
10135;BME280;5107;48.850;8.924;2023-09-08T12:08:43;97030.66;;;33.30;39.64
10135;BME280;5107;48.850;8.924;2023-09-08T12:11:10;97029.13;;;33.38;40.18
10135;BME280;5107;48.850;8.924;2023-09-08T12:13:36;97031.38;;;33.08;38.00
10135;BME280;5107;48.850;8.924;2023-09-08T12:16:01;97023.22;;;33.44;39.14
10135;BME280;5107;48.850;8.924;2023-09-08T12:18:39;97021.28;;;33.09;39.01
10135;BME280;5107;48.850;8.924;2023-09-08T12:21:05;97028.59;;;32.86;40.36
10135;BME280;5107;48.850;8.924;2023-09-08T12:23:31;97026.28;;;32.80;39.06
10135;BME280;5107;48.850;8.924;2023-09-08T12:25:57;97027.97;;;32.48;39.60
10135;BME280;5107;48.850;8.924;2023-09-08T12:28:23;97023.53;;;32.38;39.75
10135;BME280;5107;48.850;8.924;2023-09-08T12:30:49;97022.00;;;32.19;39.47
10135;BME280;5107;48.850;8.924;2023-09-08T12:33:15;97023.38;;;32.16;40.49
10135;BME280;5107;48.850;8.924;2023-09-08T12:35:44;97028.69;;;32.08;42.83
10135;BME280;5107;48.850;8.924;2023-09-08T12:38:10;97020.88;;;32.20;39.75
10135;BME280;5107;48.850;8.924;2023-09-08T12:40:36;97017.78;;;32.54;40.29
10135;BME280;5107;48.850;8.924;2023-09-08T12:43:03;97010.63;;;32.71;38.86
10135;BME280;5107;48.850;8.924;2023-09-08T12:45:29;97006.72;;;33.00;40.41
10135;BME280;5107;48.850;8.924;2023-09-08T12:47:58;97005.88;;;33.27;38.16
10135;BME280;5107;48.850;8.924;2023-09-08T12:50:24;97002.41;;;33.35;38.61
10135;BME280;5107;48.850;8.924;2023-09-08T12:52:50;97002.94;;;33.59;38.01
10135;BME280;5107;48.850;8.924;2023-09-08T12:55:15;97001.81;;;33.38;37.59
10135;BME280;5107;48.850;8.924;2023-09-08T12:57:41;96996.66;;;33.36;39.53
10135;BME280;5107;48.850;8.924;2023-09-08T13:00:07;96993.34;;;33.26;38.83
10135;BME280;5107;48.850;8.924;2023-09-08T13:02:33;96985.03;;;32.81;40.04
10135;BME280;5107;48.850;8.924;2023-09-08T13:04:58;96997.59;;;33.18;38.91
10135;BME280;5107;48.850;8.924;2023-09-08T13:07:24;96998.75;;;33.39;39.00
10135;BME280;5107;48.850;8.924;2023-09-08T13:09:49;96991.56;;;33.43;39.53
10135;BME280;5107;48.850;8.924;2023-09-08T13:12:15;96995.59;;;33.68;38.97
10135;BME280;5107;48.850;8.924;2023-09-08T13:14:41;96996.41;;;33.91;37.74
10135;BME280;5107;48.850;8.924;2023-09-08T13:17:08;96991.13;;;33.95;37.72
10135;BME280;5107;48.850;8.924;2023-09-08T13:19:33;96994.47;;;33.92;36.82
10135;BME280;5107;48.850;8.924;2023-09-08T13:21:59;96986.38;;;33.78;36.33
10135;BME280;5107;48.850;8.924;2023-09-08T13:24:24;96987.66;;;33.58;36.99